Terminal Aerodrome Forecast
Issued by NWS Wichita, KS

Home | Current Version | Previous Version | Text Only | Print | Product List | Glossary Off
Versions: 1 2 3 4 5 6 7 8 9 10 11 12 13 14 15 16 17

751
FTUS43 KICT 161959 AAB
TAFICT
TAF AMD
KICT 161959Z 1620/1718 11012KT P6SM FEW250
     FM170300 12010KT P6SM FEW250
     FM171200 12012KT P6SM FEW015
     FM171500 17012KT P6SM SCT250=

USA.gov is the U.S. government's official web portal to all federal, state and local government web resources and services.